Latest Weather Observations for Gelantipy

IDV60801

Issued at 3:02 pm EST Sunday 25 June 2017 (issued every 30 minutes, with the page automatically refreshed every 10 minutes)

About weather observations | Map of weather stations | Latest weather observations for VIC | Other Formats
Station Details ID: 084142 Name: GELANTIPY Lat: -37.22 Lon: 148.26 Height: 755.0 m
Data from the previous 72 hours. | See also: Recent months at Gelantipy
Date/Time
EST
Temp
°C
App
Temp
°C
Dew
Point
°C
Rel
Hum
%
Delta-T
°C
Wind Press
QNH
hPa
Press
MSL
hPa
Rain since
9am
mm
Dir  Spd
km/h
Gust
km/h
Spd
kts
Gust
kts
25/03:00pm 8.9 2.4 0.1 54 3.7 WNW 24 33 13 18 1013.1 1013.8 0.0
25/02:30pm 8.7 1.7 -0.3 53 3.7 WNW 26 39 14 21 1012.9 1013.6 0.0
25/02:00pm 8.5 2.3 -0.3 54 3.6 W 22 33 12 18 1013.0 1013.7 0.0
25/01:30pm 8.8 3.0 0.0 54 3.7 WNW 20 33 11 18 1013.4 1014.1 0.0
25/01:00pm 8.4 2.2 -0.1 55 3.5 NNW 22 41 12 22 1013.3 1014.0 0.0
25/12:30pm 8.6 3.1 0.6 57 3.4 NNW 19 26 10 14 1013.6 1014.3 0.0
25/12:00pm 8.2 3.0 0.2 57 3.3 N 17 28 9 15 1013.9 1014.7 0.0
25/11:30am 7.7 4.7 0.7 61 2.9 NNE 6 9 3 5 1014.3 1015.0 0.0
25/11:00am 6.9 3.4 1.0 66 2.5 NE 9 11 5 6 1014.8 1015.5 0.0
25/10:30am 5.1 1.0 -0.5 67 2.2 NE 11 15 6 8 1015.2 1016.0 0.0
25/10:00am 4.6 0.8 -0.4 70 2.0 NNE 9 13 5 7 1015.3 1016.1 0.0
25/09:30am 3.7 -0.6 -1.3 70 1.9 NNE 11 15 6 8 1015.3 1016.1 0.0
25/09:00am 3.1 -1.2 -1.8 70 1.8 NNE 11 15 6 8 1015.3 1016.1 0.8
25/08:30am 1.5 -2.9 -2.3 76 1.4 NNE 11 17 6 9 1015.3 1016.1 0.8
25/08:00am -0.5 -4.6 -3.3 81 1.0 N 9 11 5 6 1015.3 1016.1 0.8
25/07:30am -2.8 -5.4 -4.5 88 0.4 CALM 0 0 0 0 1015.1 1015.9 0.8
25/07:00am -2.0 -5.9 -4.3 84 0.7 NNE 7 9 4 5 1014.8 1015.5 0.8
25/06:30am -2.0 -6.2 -4.2 85 0.6 N 9 9 5 5 1014.6 1015.3 0.8
25/06:00am -1.3 -3.8 -3.8 83 0.8 CALM 0 0 0 0 1014.5 1015.2 0.8
25/05:30am -0.9 -3.4 -3.7 81 0.9 CALM 0 0 0 0 1014.3 1015.0 0.8
25/05:00am -0.3 -4.1 -3.5 79 1.1 NNE 7 7 4 4 1014.2 1014.9 0.8
25/04:30am -1.6 -5.3 -4.1 83 0.8 NNE 6 9 3 5 1013.9 1014.7 0.8
25/04:00am -0.6 -4.3 -3.3 82 0.9 N 7 11 4 6 1014.0 1014.8 0.8
25/03:30am -1.5 -3.9 -3.4 87 0.6 CALM 0 6 0 3 1014.3 1015.0 0.8
25/03:00am -1.0 -4.6 -3.4 84 0.8 N 6 7 3 4 1014.4 1015.1 0.8
25/02:30am 0.1 -4.0 -3.1 79 1.1 N 9 13 5 7 1014.7 1015.4 0.8
25/02:00am 0.5 -4.0 -2.9 78 1.2 N 11 13 6 7 1014.7 1015.4 0.8
25/01:30am 0.3 -3.8 -2.7 80 1.1 N 9 13 5 7 1014.8 1015.5 0.8
25/01:00am -0.3 -3.9 -1.9 89 0.6 N 7 9 4 5 1014.9 1015.6 0.8
25/12:30am 1.4 -1.8 0.5 94 0.4 N 7 9 4 5 1015.1 1015.9 0.8
25/12:00am 1.6 -1.6 1.0 96 0.2 N 7 9 4 5 1015.3 1016.1 0.8
 
Date/Time
EST
Temp
°C
App
Temp
°C
Dew
Point
°C
Rel
Hum
%
Delta-T
°C
Wind Press
QNH
hPa
Press
MSL
hPa
Rain since
9am
mm
Dir  Spd
km/h
Gust
km/h
Spd
kts
Gust
kts
24/11:30pm 1.5 -0.7 1.2 98 0.1 N 2 6 1 3 1015.6 1016.3 0.8
24/11:00pm 1.2 -1.8 1.1 99 0.0 N 6 6 3 3 1015.8 1016.5 0.8
24/10:30pm 1.8 0.1 1.7 99 0.0 CALM 0 0 0 0 1015.8 1016.5 0.8
24/10:00pm 1.7 -0.5 1.3 97 0.2 N 2 6 1 3 1015.9 1016.6 0.6
24/09:30pm 2.7 1.1 2.3 97 0.2 CALM 0 0 0 0 1016.0 1016.7 0.6
24/09:00pm 3.2 1.7 2.8 97 0.2 CALM 0 0 0 0 1016.0 1016.7 0.6
24/08:30pm 3.3 1.8 3.0 98 0.1 CALM 0 0 0 0 1016.0 1016.7 0.6
24/08:00pm 3.0 1.4 2.7 98 0.1 CALM 0 0 0 0 1016.0 1016.7 0.6
24/07:30pm 3.0 0.3 2.4 96 0.2 SE 6 7 3 4 1015.9 1016.6 0.6
24/07:00pm 3.5 2.0 2.8 95 0.3 CALM 0 0 0 0 1015.7 1016.4 0.6
24/06:30pm 3.7 2.1 2.7 93 0.4 CALM 0 0 0 0 1015.4 1016.2 0.6
24/06:00pm 4.1 2.5 2.5 89 0.7 CALM 0 0 0 0 1015.2 1016.0 0.6
24/05:30pm 4.4 2.8 2.6 88 0.8 CALM 0 0 0 0 1015.0 1015.7 0.6
24/05:00pm 4.8 3.3 2.8 87 0.9 CALM 0 0 0 0 1014.9 1015.6 0.6
24/04:30pm 5.1 3.6 3.0 86 0.9 CALM 0 0 0 0 1014.8 1015.5 0.6
24/04:00pm 5.2 2.5 2.9 85 1.0 SSW 6 9 3 5 1014.8 1015.5 0.6
24/03:30pm 5.4 2.8 3.1 85 1.0 SSW 6 11 3 6 1014.7 1015.4 0.6
24/03:00pm 5.2 2.4 3.2 87 0.9 S 7 11 4 6 1014.6 1015.3 0.6
24/02:30pm 5.2 1.6 3.2 87 0.9 SSW 11 17 6 9 1014.6 1015.3 0.6
24/02:00pm 5.0 1.4 2.9 86 0.9 SSW 11 19 6 10 1014.5 1015.2 0.6
24/01:30pm 4.7 1.1 3.0 89 0.7 SW 11 17 6 9 1014.8 1015.5 0.6
24/01:00pm 4.4 0.4 2.9 90 0.6 SW 13 20 7 11 1014.9 1015.6 0.6
24/12:30pm 4.4 -0.9 2.9 90 0.6 SW 20 28 11 15 1015.1 1015.9 0.6
24/12:00pm 3.9 0.0 3.2 95 0.3 WSW 13 24 7 13 1015.6 1016.3 0.6
24/11:30am 3.8 0.2 3.2 96 0.3 SW 11 20 6 11 1016.0 1016.7 0.6
24/11:00am 3.7 -0.2 3.3 97 0.2 SW 13 19 7 10 1016.2 1017.0 0.6
24/10:30am 3.5 0.4 3.4 99 0.0 SW 9 17 5 9 1016.3 1017.1 0.6
24/10:00am 3.3 -0.7 3.0 98 0.1 SW 13 19 7 10 1016.5 1017.3 0.4
24/09:30am 3.3 -0.6 3.2 99 0.0 WSW 13 19 7 10 1016.2 1017.0 0.2
24/09:00am 3.2 -0.8 3.1 99 0.0 SW 13 19 7 10 1016.0 1016.7 2.8
24/08:30am 2.9 -0.3 2.8 99 0.0 SSW 9 13 5 7 1015.7 1016.4 2.8
24/08:00am 2.9 -0.7 2.8 99 0.0 SSW 11 24 6 13 1015.4 1016.2 2.6
24/07:30am 3.3 -0.3 3.2 99 0.0 SSW 11 20 6 11 1014.9 1015.6 2.2
24/07:00am 3.6 -0.7 3.5 99 0.0 SSW 15 28 8 15 1014.5 1015.2 2.0
24/06:30am 4.1 -0.4 4.0 99 0.0 SW 17 28 9 15 1013.7 1014.4 1.2
24/06:00am 4.6 0.9 4.6 100 0.0 SSW 13 28 7 15 1013.3 1014.0 1.0
24/05:30am 4.7 1.8 4.4 98 0.1 SW 9 17 5 9 1012.9 1013.6 0.0
24/05:00am 5.3 2.2 3.5 88 0.8 S 9 15 5 8 1012.4 1013.1 0.0
24/04:30am 7.3 1.1 2.2 70 2.2 WSW 24 39 13 21 1011.9 1012.6 0.0
24/04:00am 7.2 1.7 1.9 69 2.3 WSW 20 28 11 15 1011.9 1012.6 0.0
24/03:30am 7.1 1.2 1.6 68 2.3 W 22 32 12 17 1011.8 1012.5 0.0
24/03:00am 7.4 1.1 1.5 66 2.5 W 24 33 13 18 1011.7 1012.4 0.0
24/02:30am 7.1 0.8 1.4 67 2.4 W 24 33 13 18 1011.7 1012.4 0.0
24/02:00am 7.3 0.6 1.4 66 2.5 W 26 41 14 22 1011.6 1012.2 0.0
24/01:30am 7.0 0.3 1.3 67 2.4 W 26 39 14 21 1011.5 1012.1 0.0
24/01:00am 7.1 0.7 1.2 66 2.5 W 24 39 13 21 1011.5 1012.1 0.0
24/12:30am 7.2 -0.9 1.1 65 2.6 W 33 44 18 24 1011.4 1012.0 0.0
24/12:00am 7.4 -0.7 0.8 63 2.8 W 33 57 18 31 1011.5 1012.1 0.0
 
Date/Time
EST
Temp
°C
App
Temp
°C
Dew
Point
°C
Rel
Hum
%
Delta-T
°C
Wind Press
QNH
hPa
Press
MSL
hPa
Rain since
9am
mm
Dir  Spd
km/h
Gust
km/h
Spd
kts
Gust
kts
23/11:37pm 7.1 -0.8 1.0 65 2.6 W 32 54 17 29 1011.7 1012.4 0.0
23/11:30pm 7.0 -0.9 1.1 66 2.5 W 32 43 17 23 1011.7 1012.4 0.0
23/11:00pm 6.8 0.3 0.5 64 2.6 W 24 43 13 23 1012.1 1012.8 0.0
23/10:30pm 6.8 -1.2 0.5 64 2.6 WNW 32 50 17 27 1011.9 1012.6 0.0
23/10:02pm 7.0 -0.3 0.2 62 2.8 W 28 46 15 25 1012.3 1013.0 0.0
23/10:00pm 7.0 -0.7 0.2 62 2.8 W 30 46 16 25 1012.3 1013.0 0.0
23/09:36pm 7.1 -0.2 0.1 61 2.9 WNW 28 48 15 26 1012.2 1012.9 0.0
23/09:30pm 6.8 0.2 -0.2 61 2.8 WNW 24 37 13 20 1012.3 1013.0 0.0
23/09:00pm 7.0 0.8 -0.2 60 2.9 W 22 44 12 24 1012.4 1013.1 0.0
23/08:30pm 6.9 2.0 -0.3 60 2.9 WNW 15 35 8 19 1011.9 1012.6 0.0
23/08:00pm 7.6 -0.1 0.1 59 3.1 WNW 30 50 16 27 1012.2 1012.9 0.0
23/07:57pm 7.6 0.3 -0.1 58 3.2 WNW 28 50 15 27 1012.1 1012.8 0.0
23/07:30pm 7.4 1.6 -0.3 58 3.1 WNW 20 35 11 19 1012.2 1012.9 0.0
23/07:00pm 7.6 1.4 -0.1 58 3.2 WNW 22 35 12 19 1011.9 1012.6 0.0
23/06:30pm 7.7 0.7 -0.5 56 3.3 WNW 26 39 14 21 1012.0 1012.7 0.0
23/06:00pm 7.5 0.5 -0.5 57 3.3 NW 26 46 14 25 1012.1 1012.8 0.0
23/05:30pm 7.0 0.6 -1.7 54 3.4 NW 22 33 12 18 1012.6 1013.3 0.0
23/05:00pm 6.8 0.7 -2.1 53 3.5 WNW 20 28 11 15 1012.5 1013.2 0.0
23/04:30pm 7.0 1.1 -2.2 52 3.6 WNW 19 28 10 15 1012.3 1013.0 0.0
23/04:00pm 8.3 2.7 -3.2 44 4.4 WNW 17 28 9 15 1012.6 1013.3 0.0
23/03:30pm 9.7 4.4 -3.6 39 5.1 WNW 15 22 8 12 1012.5 1013.2 0.0
23/03:00pm 10.0 5.1 -3.6 38 5.3 WNW 13 19 7 10 1012.5 1013.2 0.0
23/02:30pm 11.0 5.4 -2.8 38 5.5 WNW 17 26 9 14 1012.9 1013.6 0.0
23/02:00pm 11.4 5.7 -3.5 35 5.9 W 17 28 9 15 1013.0 1013.7 0.0
23/01:30pm 11.5 5.5 -3.0 36 5.8 W 19 28 10 15 1013.2 1013.9 0.0
23/01:00pm 11.2 7.6 0.6 48 4.6 NNE 9 15 5 8 1013.6 1014.3 0.0
23/12:30pm 11.1 8.3 2.2 54 4.0 NNE 6 13 3 7 1014.3 1015.0 0.0
23/12:00pm 9.6 5.7 3.6 66 2.7 NNE 13 17 7 9 1014.8 1015.5 0.0
23/11:30am 8.9 4.9 2.7 65 2.8 NNE 13 19 7 10 1015.3 1016.1 0.0
23/11:00am 8.0 3.6 2.5 68 2.4 NNE 15 19 8 10 1016.2 1017.0 0.0
23/10:30am 7.3 2.0 1.8 68 2.4 NNE 19 24 10 13 1016.8 1017.6 0.0
23/10:00am 6.9 2.0 1.8 70 2.2 N 17 24 9 13 1017.4 1018.2 0.0
23/09:30am 6.3 2.7 3.1 80 1.4 NNE 11 15 6 8 1017.5 1018.3 0.0
23/09:00am 3.2 -0.6 2.0 92 0.5 NNE 11 15 6 8 1017.6 1018.4 0.0
23/08:30am 1.4 -4.1 0.8 96 0.2 N 19 24 10 13 1017.6 1018.4 0.0
23/08:00am 1.5 -2.4 1.2 98 0.1 NE 11 15 6 8 1017.7 1018.5 0.0
23/07:30am 0.8 -4.3 0.7 99 0.0 NNE 17 20 9 11 1017.9 1018.7 0.0
23/07:00am 0.7 -4.0 0.6 99 0.0 NNE 15 19 8 10 1017.9 1018.7 0.0
23/06:30am 0.9 -4.2 0.8 99 0.0 N 17 19 9 10 1018.3 1019.1 0.0
23/06:00am 1.7 -2.2 1.4 98 0.1 NNE 11 17 6 9 1018.1 1018.9 0.0
23/05:30am 1.9 -2.3 1.6 98 0.1 NNE 13 17 7 9 1018.1 1018.9 0.0
23/05:00am 2.1 -1.7 1.8 98 0.1 NNE 11 15 6 8 1018.5 1019.3 0.0
23/04:30am 2.1 -2.5 1.5 96 0.2 N 15 17 8 9 1018.6 1019.4 0.0
23/04:00am 2.8 -1.4 1.8 93 0.4 N 13 17 7 9 1019.0 1019.8 0.0
23/03:30am 2.8 -1.4 1.5 91 0.5 N 13 15 7 8 1019.2 1020.0 0.0
23/03:00am 2.2 -1.4 0.7 90 0.6 NNE 9 13 5 7 1019.5 1020.3 0.0
23/02:30am 2.6 -0.9 1.1 90 0.6 NNE 9 11 5 6 1019.7 1020.6 0.0
23/02:00am 2.6 -1.0 0.7 87 0.8 NNE 9 9 5 5 1020.4 1021.2 0.0
23/01:30am 2.9 -1.0 1.1 88 0.7 NNE 11 13 6 7 1020.3 1021.1 0.0
23/01:00am 2.8 -1.1 1.2 89 0.6 NNE 11 15 6 8 1020.6 1021.4 0.0
23/12:30am 3.6 -0.6 1.8 88 0.7 N 13 17 7 9 1020.7 1021.6 0.0
23/12:00am 3.5 -0.7 1.7 88 0.7 N 13 15 7 8 1021.3 1022.1 0.0
 
Date/Time
EST
Temp
°C
App
Temp
°C
Dew
Point
°C
Rel
Hum
%
Delta-T
°C
Wind Press
QNH
hPa
Press
MSL
hPa
Rain since
9am
mm
Dir  Spd
km/h
Gust
km/h
Spd
kts
Gust
kts
22/11:30pm 3.2 -1.1 1.3 87 0.8 N 13 17 7 9 1021.7 1022.5 0.0
22/11:00pm 2.9 -0.5 2.0 94 0.4 N 9 13 5 7 1022.1 1023.0 0.0
22/10:30pm 2.6 -0.7 2.5 99 0.0 NNE 9 13 5 7 1022.5 1023.4 0.0
22/10:00pm 3.2 0.6 3.1 99 0.0 N 6 9 3 5 1022.7 1023.5 0.0
22/09:30pm 3.8 1.1 3.5 98 0.1 N 7 9 4 5 1022.8 1023.6 0.0
22/09:00pm 4.2 1.2 4.1 99 0.0 NNE 9 11 5 6 1022.9 1023.7 0.0
22/08:30pm 4.1 1.1 4.1 100 0.0 NNE 9 11 5 6 1023.1 1024.0 0.0
22/08:00pm 3.2 0.4 3.1 99 0.0 NE 7 11 4 6 1023.4 1024.3 0.0
22/07:30pm 4.0 1.3 3.9 99 0.0 NNE 7 9 4 5 1023.4 1024.3 0.0
22/07:00pm 4.7 1.7 4.3 97 0.2 WNW 9 9 5 5 1023.4 1024.3 0.0
22/06:30pm 5.4 3.4 4.5 94 0.4 NE 4 7 2 4 1023.3 1024.2 0.0
22/06:00pm 6.1 3.9 5.4 95 0.3 WSW 6 9 3 5 1023.7 1024.6 0.0
22/05:30pm 6.4 3.8 6.0 97 0.2 SSW 9 13 5 7 1023.8 1024.7 0.0
22/05:00pm 6.8 4.3 6.4 97 0.2 S 9 17 5 9 1023.8 1024.7 0.0
22/04:30pm 7.4 4.8 6.3 93 0.5 SW 9 15 5 8 1023.7 1024.6 0.0
22/04:00pm 8.1 5.5 4.1 76 1.8 S 7 11 4 6 1023.3 1024.2 0.0
22/03:30pm 8.3 5.9 4.3 76 1.8 E 6 11 3 6 1023.2 1024.1 0.0

Other Formats:

Comma delimited format used in spreadsheet applications
http://www.bom.gov.au/fwo/IDV60801/IDV60801.94913.axf

JavaScript Object Notation format (JSON) in row-major order
http://www.bom.gov.au/fwo/IDV60801/IDV60801.94913.json